createdAt,value
2023-02-18T00:02:01.878Z,3.83856
2023-02-18T00:07:03.584Z,4.14248
2023-02-18T00:12:05.238Z,3.75694
2023-02-18T00:17:07.127Z,3.41714
2023-02-18T00:22:09.012Z,3.93574
2023-02-18T00:27:10.656Z,3.31551
2023-02-18T00:32:12.384Z,3.1056
2023-02-18T00:37:14.189Z,3.10369
2023-02-18T00:42:16.086Z,2.99572
2023-02-18T00:47:17.778Z,3.10591
2023-02-18T00:52:19.467Z,2.85821
2023-02-18T00:57:21.317Z,2.73563
2023-02-18T01:02:22.914Z,2.61368
2023-02-18T01:07:24.587Z,2.09826
2023-02-18T01:12:26.276Z,2.27578
2023-02-18T01:17:27.929Z,1.79593
2023-02-18T01:22:29.640Z,2.08683
2023-02-18T01:27:32.022Z,1.5079
2023-02-18T01:32:33.723Z,1.69368
2023-02-18T01:37:35.646Z,1.62699
2023-02-18T01:42:37.281Z,1.39961
2023-02-18T01:47:39.148Z,1.22971
2023-02-18T01:52:41.036Z,1.18049
2023-02-18T01:57:42.664Z,1.03663
2023-02-18T02:02:44.509Z,1.01853
2023-02-18T02:07:46.111Z,1.32816
2023-02-18T02:12:47.772Z,1.52219
2023-02-18T02:17:49.365Z,1.15921
2023-02-18T02:22:50.977Z,1.53934
2023-02-18T02:27:52.662Z,1.50282
2023-02-18T02:32:54.500Z,1.31355
2023-02-18T02:37:56.179Z,0.90611
2023-02-18T02:42:57.916Z,1.55458
2023-02-18T02:47:59.620Z,1.25734
2023-02-18T02:53:01.451Z,1.62508
2023-02-18T02:58:03.430Z,1.12682
2023-02-18T03:03:05.130Z,2.5057
2023-02-18T03:08:06.898Z,2.66894
2023-02-18T03:13:08.542Z,2.89028
2023-02-18T03:18:10.210Z,2.137
2023-02-18T03:23:11.934Z,1.89406
2023-02-18T03:28:13.569Z,1.6616
2023-02-18T03:33:15.265Z,2.21227
2023-02-18T03:38:17.008Z,2.59589
2023-02-18T03:43:18.827Z,2.52698
2023-02-18T03:48:20.526Z,2.5997
2023-02-18T03:53:22.340Z,2.6629
2023-02-18T03:58:23.944Z,2.04935
2023-02-18T04:03:25.737Z,2.1875
2023-02-18T04:08:27.350Z,2.04935
2023-02-18T04:13:29.056Z,2.48538
2023-02-18T04:18:30.665Z,1.96488
2023-02-18T04:23:32.256Z,1.63207
2023-02-18T04:28:33.921Z,1.43422
2023-02-18T04:33:35.633Z,1.5241
2023-02-18T04:38:37.559Z,1.64477
2023-02-18T04:43:39.241Z,1.74639
2023-02-18T04:48:41.212Z,1.75656
2023-02-18T04:53:43.046Z,1.77879
2023-02-18T04:58:44.708Z,1.37135
2023-02-18T05:03:46.517Z,0.75082
2023-02-18T05:08:48.347Z,0.61617
2023-02-18T05:13:50.026Z,1.5152
2023-02-18T05:18:51.703Z,1.2783
2023-02-18T05:23:53.338Z,1.38881
2023-02-18T05:28:54.971Z,1.32911
2023-02-18T05:33:56.660Z,1.61937
2023-02-18T05:38:58.434Z,0.59268
2023-02-18T05:44:00.096Z,1.13635
2023-02-18T05:49:01.793Z,0.88769
2023-02-18T05:54:03.499Z,1.21733
2023-02-18T05:59:05.145Z,1.10681
2023-02-18T06:04:07.030Z,1.5187
2023-02-18T06:09:08.659Z,1.70035
2023-02-18T06:14:10.333Z,1.35324
2023-02-18T06:19:11.978Z,1.15921
2023-02-18T06:24:13.634Z,0.79973
2023-02-18T06:29:15.252Z,0.69525
2023-02-18T06:34:16.915Z,0.26527
2023-02-18T06:39:18.600Z,0.66889
2023-02-18T06:44:20.166Z,1.28687
2023-02-18T06:49:21.805Z,0.95057
2023-02-18T06:54:23.420Z,0.51805
2023-02-18T06:59:25.002Z,0.70382
2023-02-18T07:04:26.774Z,1.15731
2023-02-18T07:09:28.509Z,1.69527
2023-02-18T07:14:30.155Z,1.49234
2023-02-18T07:19:31.802Z,1.36785
2023-02-18T07:24:33.520Z,1.18525
2023-02-18T07:29:35.208Z,0.83656
2023-02-18T07:34:36.909Z,0.2875
2023-02-18T07:39:38.532Z,0.22589
2023-02-18T07:44:40.206Z,0.48121
2023-02-18T07:49:41.835Z,1.06553
2023-02-18T07:54:43.604Z,1.42756
2023-02-18T07:59:45.212Z,1.11698
2023-02-18T08:04:47.032Z,0.72065
2023-02-18T08:09:48.736Z,1.00614
2023-02-18T08:14:50.418Z,0.821
2023-02-18T08:19:52.116Z,0.08584
2023-02-18T08:24:53.795Z,-0.29936
2023-02-18T08:29:55.488Z,-0.06786
2023-02-18T08:34:57.175Z,0.58093
2023-02-18T08:39:58.905Z,0.04361
2023-02-18T08:45:00.569Z,-0.40796
2023-02-18T08:50:02.247Z,-0.4394
2023-02-18T08:55:03.868Z,-0.06786
2023-02-18T09:00:05.539Z,0.74828
2023-02-18T09:05:07.202Z,0.89754
2023-02-18T09:10:08.861Z,0.43008
2023-02-18T09:15:10.563Z,0.54599
2023-02-18T09:20:12.200Z,1.03949
2023-02-18T09:25:13.837Z,0.86483
2023-02-18T09:30:15.766Z,1.03695
2023-02-18T09:35:17.494Z,0.53869
2023-02-18T09:40:19.190Z,0.93469
2023-02-18T09:45:20.874Z,1.11189
2023-02-18T09:50:23.227Z,0.56536
2023-02-18T09:55:24.851Z,0.61808
2023-02-18T10:00:26.442Z,0.03789
2023-02-18T10:05:28.291Z,0.77464
2023-02-18T10:10:29.941Z,0.56886
2023-02-18T10:15:31.566Z,0.13157
2023-02-18T10:20:33.371Z,0.27829
2023-02-18T10:25:35.117Z,0.43231
2023-02-18T10:30:36.818Z,-0.09644
2023-02-18T10:35:38.440Z,-0.34668
2023-02-18T10:40:40.206Z,0.31417
2023-02-18T10:45:41.884Z,0.69525
2023-02-18T10:50:43.504Z,0.6492
2023-02-18T10:55:45.167Z,0.73209
2023-02-18T11:00:46.846Z,0.51328
2023-02-18T11:05:48.470Z,0.97407
2023-02-18T11:10:50.174Z,0.1754
2023-02-18T11:15:51.911Z,-0.50165
2023-02-18T11:20:53.545Z,-0.20536
2023-02-18T11:25:55.196Z,0.66063
2023-02-18T11:30:56.882Z,0.92104
2023-02-18T11:35:58.605Z,0.70986
2023-02-18T11:41:00.245Z,0.72256
2023-02-18T11:46:01.939Z,0.84831
2023-02-18T11:51:04.811Z,0.63205
2023-02-18T11:56:07.473Z,0.66063
2023-02-18T12:01:09.444Z,0.69842
2023-02-18T12:06:11.300Z,-0.06913
2023-02-18T12:11:12.963Z,0.72573
2023-02-18T12:16:14.698Z,0.71017
2023-02-18T12:21:16.353Z,0.34148
2023-02-18T12:26:17.940Z,0.30814
2023-02-18T12:31:19.664Z,0.43739
2023-02-18T12:36:21.331Z,0.79274
2023-02-18T12:41:23.002Z,-0.04213
2023-02-18T12:46:24.601Z,0.17794
2023-02-18T12:51:26.841Z,-0.11708
2023-02-18T12:56:29.443Z,-0.61914
2023-02-18T13:01:31.125Z,-0.53499
2023-02-18T13:06:33.035Z,0.11252
2023-02-18T13:11:34.873Z,0.63523
2023-02-18T13:16:36.607Z,0.55171
2023-02-18T13:21:38.277Z,0.71081
2023-02-18T13:26:39.962Z,0.13411
2023-02-18T13:31:41.863Z,0.47581
2023-02-18T13:36:43.593Z,-0.63121
2023-02-18T13:41:45.231Z,-0.49783
2023-02-18T13:46:46.894Z,0.01249
2023-02-18T13:51:48.770Z,0.50916
2023-02-18T13:56:50.450Z,-0.29714
2023-02-18T14:01:52.140Z,0.15507
2023-02-18T14:06:54.024Z,0.39579
2023-02-18T14:11:55.724Z,0.02964
2023-02-18T14:16:57.357Z,-0.29587
2023-02-18T14:21:58.978Z,0.18492
2023-02-18T14:27:00.618Z,-0.13169
2023-02-18T14:32:02.583Z,-0.16154
2023-02-18T14:37:04.299Z,-0.20282
2023-02-18T14:42:05.963Z,0.51328
2023-02-18T14:47:07.644Z,0.64698
2023-02-18T14:52:09.366Z,0.63904
2023-02-18T14:57:11.035Z,0.70795
2023-02-18T15:02:12.697Z,0.85086
2023-02-18T15:07:14.305Z,0.80576
2023-02-18T15:12:15.872Z,0.34402
2023-02-18T15:17:17.496Z,-0.38796
2023-02-18T15:22:19.175Z,0.61903
2023-02-18T15:27:20.811Z,0.97407
2023-02-18T15:32:22.596Z,0.90992
2023-02-18T15:37:24.493Z,1.06426
2023-02-18T15:42:26.382Z,1.12237
2023-02-18T15:47:28.102Z,0.20175
2023-02-18T15:52:29.960Z,-0.2025
2023-02-18T15:57:31.690Z,0.87721
2023-02-18T16:02:33.312Z,1.08268
2023-02-18T16:07:35.016Z,0.88547
2023-02-18T16:12:36.914Z,1.34943
2023-02-18T16:17:38.584Z,1.056
2023-02-18T16:22:40.313Z,1.07728
2023-02-18T16:27:41.994Z,0.29798
2023-02-18T16:32:43.769Z,0.18143
2023-02-18T16:37:45.538Z,0.11442
2023-02-18T16:42:47.321Z,-0.11263
2023-02-18T16:47:48.980Z,0.56886
2023-02-18T16:52:51.341Z,0.6854
2023-02-18T16:57:53.133Z,0.6057
2023-02-18T17:02:54.859Z,0.78702
2023-02-18T17:07:56.512Z,1.61302
2023-02-18T17:12:58.185Z,1.60539
2023-02-18T17:17:59.886Z,1.64699
2023-02-18T17:23:01.480Z,2.56922
2023-02-18T17:28:03.307Z,1.90296
2023-02-18T17:33:05.034Z,2.17924
2023-02-18T17:38:07.642Z,1.90105
2023-02-18T17:43:09.359Z,2.47172
2023-02-18T17:48:11.009Z,2.50761
2023-02-18T17:53:12.651Z,2.93633
2023-02-18T17:58:14.395Z,4.09961
2023-02-18T18:03:16.052Z,4.73159
2023-02-18T18:08:17.813Z,4.49912
2023-02-18T18:13:19.485Z,3.20055
2023-02-18T18:18:21.053Z,4.55184
2023-02-18T18:23:22.791Z,3.57211
2023-02-18T18:28:24.484Z,4.68681
2023-02-18T18:33:26.215Z,4.7897
2023-02-18T18:38:27.912Z,5.07584
2023-02-18T18:43:32.500Z,6.10926
2023-02-18T18:48:34.671Z,5.68306
2023-02-18T18:53:36.513Z,6.20707
2023-02-18T18:58:38.666Z,5.53094
2023-02-18T19:03:40.304Z,6.22676
2023-02-18T19:08:41.986Z,6.175
2023-02-18T19:13:43.715Z,6.79619
2023-02-18T19:18:45.381Z,6.26614
2023-02-18T19:23:46.994Z,6.3792
2023-02-18T19:28:48.663Z,6.63486
2023-02-18T19:33:50.755Z,7.8382
2023-02-18T19:38:52.673Z,6.81017
2023-02-18T19:43:54.649Z,8.20375
2023-02-18T19:48:56.435Z,7.70608
2023-02-18T19:53:58.121Z,7.62192
2023-02-18T19:58:59.796Z,7.62097
2023-02-18T20:04:02.037Z,8.29585
2023-02-18T20:09:03.779Z,8.08529
2023-02-18T20:14:05.374Z,8.38287
2023-02-18T20:19:07.190Z,8.41622
2023-02-18T20:24:09.071Z,6.99469
2023-02-18T20:29:10.911Z,8.64997
2023-02-18T20:34:12.624Z,7.607
2023-02-18T20:39:16.387Z,8.30697
2023-02-18T20:44:18.464Z,8.8256
2023-02-18T20:49:20.137Z,7.30751
2023-02-18T20:54:21.835Z,8.84402
2023-02-18T20:59:23.544Z,9.0368
2023-02-18T21:04:25.466Z,8.68395
2023-02-18T21:09:27.044Z,8.81321
2023-02-18T21:14:28.653Z,8.51118
2023-02-18T21:19:30.269Z,7.96778
2023-02-18T21:24:32.124Z,7.49266
2023-02-18T21:29:33.816Z,7.90934
2023-02-18T21:34:35.415Z,7.72609
2023-02-18T21:39:37.084Z,7.91252
2023-02-18T21:44:42.598Z,7.16714
2023-02-18T21:49:44.503Z,6.53419
2023-02-18T21:54:46.219Z,6.30902
2023-02-18T21:59:47.924Z,7.41676
2023-02-18T22:04:49.663Z,6.73458
2023-02-18T22:09:51.490Z,8.20947
2023-02-18T22:14:53.114Z,8.46989
2023-02-18T22:19:54.773Z,7.98334
2023-02-18T22:24:56.721Z,7.47678
2023-02-18T22:29:58.427Z,4.75033
2023-02-18T22:35:00.149Z,5.03488
2023-02-18T22:40:01.768Z,4.87386
2023-02-18T22:45:03.387Z,5.30736
2023-02-18T22:50:05.145Z,6.04415
2023-02-18T22:55:06.759Z,5.57127
2023-02-18T23:00:08.639Z,5.39851
2023-02-18T23:05:10.266Z,4.33334
2023-02-18T23:10:11.878Z,5.47981
2023-02-18T23:15:14.247Z,4.67093
2023-02-18T23:20:15.894Z,5.15333
2023-02-18T23:25:17.542Z,5.75769
2023-02-18T23:30:19.290Z,5.02059
2023-02-18T23:35:20.985Z,5.7126
2023-02-18T23:40:22.674Z,5.36961
2023-02-18T23:45:24.306Z,5.43217
2023-02-18T23:50:25.981Z,5.52014
2023-02-18T23:55:27.618Z,4.36828
